Time;durP1;ratioP1;P1;durP2;ratioP2;P2;SDS_P1;SDS_P2;PMS_P1;PMS_P2;Temp;Humidity;BMP_temperature;BMP_pressure;BME280_temperature;BME280_humidity;BME280_pressure;Samples;Min_cycle;Max_cycle;Signal;HPM_P1;HPM_P2
2021/05/01 00:00:24;;;;;;;41.70;30.90;;;10.70;99.90;;;;;;5074991;28;20187;-73
2021/05/01 00:02:50;;;;;;;38.87;31.27;;;10.80;99.90;;;;;;5075650;28;20208;-72
2021/05/01 00:05:16;;;;;;;37.63;31.10;;;10.70;99.90;;;;;;5066975;28;20198;-73
2021/05/01 00:07:42;;;;;;;39.63;31.97;;;10.70;99.90;;;;;;5059588;28;20672;-73
2021/05/01 00:10:08;;;;;;;37.53;30.27;;;10.70;99.90;;;;;;5074803;28;20450;-73
2021/05/01 00:12:34;;;;;;;42.03;32.30;;;10.60;99.90;;;;;;5072390;28;20416;-73
2021/05/01 00:15:00;;;;;;;38.23;30.50;;;10.50;99.90;;;;;;5069682;28;20431;-73
2021/05/01 00:17:25;;;;;;;46.77;34.20;;;10.40;99.90;;;;;;5075028;28;20420;-73
2021/05/01 00:19:51;;;;;;;39.67;31.17;;;10.40;99.90;;;;;;5075313;28;20174;-77
2021/05/01 00:22:17;;;;;;;38.77;31.60;;;10.30;99.90;;;;;;5058609;28;20227;-77
2021/05/01 00:24:43;;;;;;;39.97;32.20;;;10.10;99.90;;;;;;5066004;28;20210;-77
2021/05/01 00:27:08;;;;;;;39.13;32.40;;;10.00;99.90;;;;;;5074167;28;20178;-77
2021/05/01 00:29:34;;;;;;;37.83;32.80;;;10.00;99.90;;;;;;5078147;28;20410;-77
2021/05/01 00:31:59;;;;;;;43.43;32.43;;;10.00;99.90;;;;;;5058472;28;20178;-75
2021/05/01 00:34:25;;;;;;;42.60;32.00;;;9.90;99.90;;;;;;5074603;28;20575;-75
2021/05/01 00:36:50;;;;;;;41.17;31.07;;;9.90;99.90;;;;;;5074369;28;20178;-76
2021/05/01 00:39:16;;;;;;;43.97;35.07;;;9.80;99.90;;;;;;5074456;28;20699;-74
2021/05/01 00:41:45;;;;;;;44.90;34.20;;;9.60;99.90;;;;;;5076010;28;20251;-77
2021/05/01 00:44:11;;;;;;;42.73;33.40;;;9.50;99.90;;;;;;5076985;28;20198;-77
2021/05/01 00:46:36;;;;;;;43.97;34.50;;;9.30;99.90;;;;;;5076238;28;20770;-75
2021/05/01 00:49:02;;;;;;;46.77;34.77;;;9.20;99.90;;;;;;5074510;28;20425;-76
2021/05/01 00:51:28;;;;;;;46.53;36.57;;;9.10;99.90;;;;;;5073676;28;20659;-76
2021/05/01 00:53:53;;;;;;;48.43;35.80;;;9.10;99.90;;;;;;5056386;28;20285;-75
2021/05/01 00:56:20;;;;;;;48.63;35.47;;;9.10;99.90;;;;;;5074220;28;20265;-76
2021/05/01 00:58:46;;;;;;;43.60;34.53;;;9.10;99.90;;;;;;5074482;28;20189;-76
2021/05/01 01:01:17;;;;;;;45.70;34.90;;;9.00;99.90;;;;;;5073972;28;20420;-75
2021/05/01 01:03:43;;;;;;;45.77;35.03;;;9.00;99.90;;;;;;5056143;28;20525;-75
2021/05/01 01:06:09;;;;;;;47.93;36.57;;;9.10;99.90;;;;;;5073543;28;20446;-76
2021/05/01 01:08:35;;;;;;;47.00;34.60;;;9.10;99.90;;;;;;5056387;28;20412;-76
2021/05/01 01:11:01;;;;;;;47.00;35.63;;;9.10;99.90;;;;;;5073678;28;20409;-75
2021/05/01 01:13:26;;;;;;;48.97;36.67;;;9.20;99.90;;;;;;5073661;28;20515;-76
2021/05/01 01:15:52;;;;;;;43.63;34.93;;;9.20;99.90;;;;;;5074051;28;20174;-76
2021/05/01 01:18:17;;;;;;;42.40;34.93;;;9.20;99.90;;;;;;5073617;28;20173;-75
2021/05/01 01:20:43;;;;;;;48.60;34.80;;;9.20;99.90;;;;;;5073717;28;20182;-75
2021/05/01 01:23:09;;;;;;;46.37;35.40;;;9.20;99.90;;;;;;5075706;28;20272;-77
2021/05/01 01:25:35;;;;;;;54.33;35.93;;;9.20;99.90;;;;;;5055615;28;20706;-76
2021/05/01 01:28:01;;;;;;;51.03;36.27;;;9.10;99.90;;;;;;5073773;28;20524;-74
2021/05/01 01:30:30;;;;;;;50.07;37.40;;;8.90;99.90;;;;;;5073601;28;20428;-75
2021/05/01 01:33:01;;;;;;;51.23;38.77;;;8.90;99.90;;;;;;5057637;28;20494;-76
2021/05/01 01:35:27;;;;;;;56.90;38.63;;;8.90;99.90;;;;;;5076186;28;20444;-75
2021/05/01 01:37:53;;;;;;;50.57;38.60;;;8.80;99.90;;;;;;5073724;28;20416;-75
2021/05/01 01:40:20;;;;;;;57.00;39.93;;;8.90;99.90;;;;;;5073036;28;20264;-76
2021/05/01 01:42:47;;;;;;;50.87;39.40;;;8.80;99.90;;;;;;5073492;28;20937;-75
2021/05/01 01:45:15;;;;;;;52.90;38.70;;;8.90;99.90;;;;;;5072820;28;20547;-76
2021/05/01 01:47:42;;;;;;;52.57;38.00;;;8.90;99.90;;;;;;5073133;28;20791;-75
2021/05/01 01:50:10;;;;;;;55.97;40.87;;;8.90;99.90;;;;;;5055174;28;20412;-75
2021/05/01 01:52:37;;;;;;;50.30;36.70;;;8.90;99.90;;;;;;5073431;28;20428;-76
2021/05/01 01:55:05;;;;;;;54.20;40.70;;;8.90;99.90;;;;;;5072992;28;20427;-75
2021/05/01 01:57:30;;;;;;;50.47;39.40;;;8.80;99.90;;;;;;5073206;28;20443;-75
2021/05/01 01:59:56;;;;;;;51.50;38.87;;;8.80;99.90;;;;;;5073097;28;20503;-76
2021/05/01 02:02:22;;;;;;;50.00;39.00;;;8.80;99.90;;;;;;5073052;28;20852;-76
2021/05/01 02:04:47;;;;;;;49.80;37.37;;;8.80;99.90;;;;;;5073109;28;20559;-76
2021/05/01 02:07:13;;;;;;;54.97;41.30;;;8.80;99.90;;;;;;5054758;28;20200;-76
2021/05/01 02:09:38;;;;;;;60.70;39.57;;;8.80;99.90;;;;;;5056674;28;20177;-76
2021/05/01 02:12:04;;;;;;;55.77;40.33;;;8.70;99.90;;;;;;5059285;28;20173;-77
2021/05/01 02:14:30;;;;;;;55.00;39.43;;;8.60;99.90;;;;;;5056873;28;20277;-75
2021/05/01 02:16:55;;;;;;;56.03;38.20;;;8.70;99.90;;;;;;5054652;28;20186;-75
2021/05/01 02:19:21;;;;;;;50.47;39.33;;;8.60;99.90;;;;;;5071978;28;20170;-76
2021/05/01 02:21:46;;;;;;;47.53;37.20;;;8.50;99.90;;;;;;5072981;28;20176;-76
2021/05/01 02:24:12;;;;;;;58.23;40.93;;;8.50;99.90;;;;;;5072405;28;20222;-75
2021/05/01 02:26:38;;;;;;;57.77;41.93;;;8.40;99.90;;;;;;5054664;28;20190;-75
2021/05/01 02:29:04;;;;;;;57.53;42.33;;;8.40;99.90;;;;;;5072680;28;20166;-76
2021/05/01 02:31:29;;;;;;;61.53;42.70;;;8.40;99.90;;;;;;5072122;28;20944;-76
2021/05/01 02:33:55;;;;;;;54.83;40.67;;;8.40;99.90;;;;;;5054289;28;20197;-76
2021/05/01 02:36:20;;;;;;;62.63;42.83;;;8.30;99.90;;;;;;5072548;28;20165;-74
2021/05/01 02:38:46;;;;;;;54.43;39.63;;;8.30;99.90;;;;;;5072742;28;20249;-74
2021/05/01 02:41:12;;;;;;;62.70;43.10;;;8.30;99.90;;;;;;5055928;28;20170;-77
2021/05/01 02:43:37;;;;;;;55.77;40.47;;;8.30;99.90;;;;;;5056740;28;20190;-75
2021/05/01 02:46:03;;;;;;;59.13;43.10;;;8.30;99.90;;;;;;5055532;28;20181;-75
2021/05/01 02:48:30;;;;;;;64.17;41.53;;;8.20;99.90;;;;;;5072087;28;20174;-74
2021/05/01 02:50:57;;;;;;;58.50;40.70;;;8.10;99.90;;;;;;5072620;28;20170;-75
2021/05/01 02:53:22;;;;;;;53.80;40.53;;;8.00;99.90;;;;;;5074351;28;20433;-74
2021/05/01 02:55:48;;;;;;;52.43;39.37;;;8.00;99.90;;;;;;5072767;28;20424;-77
2021/05/01 02:58:14;;;;;;;54.53;40.67;;;7.70;99.90;;;;;;5056297;28;20170;-77
2021/05/01 03:00:40;;;;;;;58.90;41.90;;;7.40;99.90;;;;;;5072379;28;20925;-74
2021/05/01 03:03:05;;;;;;;58.87;40.47;;;7.30;99.90;;;;;;5071946;28;20225;-75
2021/05/01 03:05:31;;;;;;;57.63;41.50;;;7.40;99.90;;;;;;5054066;28;20308;-74
2021/05/01 03:07:57;;;;;;;53.63;39.63;;;7.40;99.90;;;;;;5071986;28;20178;-75
2021/05/01 03:10:27;;;;;;;56.73;41.20;;;7.40;99.90;;;;;;5071620;28;20230;-75
2021/05/01 03:12:53;;;;;;;57.53;39.73;;;7.40;99.90;;;;;;5071318;28;20260;-75
2021/05/01 03:15:20;;;;;;;50.63;37.17;;;7.30;99.90;;;;;;5053513;28;20420;-75
2021/05/01 03:17:46;;;;;;;52.73;38.77;;;7.40;99.90;;;;;;5053720;28;20769;-76
2021/05/01 03:20:13;;;;;;;58.90;40.63;;;7.40;99.90;;;;;;5071476;28;20420;-74
2021/05/01 03:22:39;;;;;;;52.83;37.27;;;7.30;99.90;;;;;;5071778;28;20420;-76
2021/05/01 03:25:06;;;;;;;52.83;37.90;;;7.30;99.90;;;;;;5053627;28;21046;-76
2021/05/01 03:27:32;;;;;;;54.03;39.23;;;7.30;99.90;;;;;;5071784;28;20408;-75
2021/05/01 03:29:58;;;;;;;63.20;42.40;;;7.20;99.90;;;;;;5071549;28;20454;-76
2021/05/01 03:32:23;;;;;;;62.97;43.63;;;7.20;99.90;;;;;;5053355;28;20170;-76
2021/05/01 03:34:49;;;;;;;70.03;43.57;;;7.20;99.90;;;;;;5071535;28;20206;-76
2021/05/01 03:37:14;;;;;;;66.47;45.90;;;7.20;99.90;;;;;;5071356;28;20174;-76
2021/05/01 03:39:40;;;;;;;68.37;44.83;;;7.30;99.90;;;;;;5053371;28;20174;-75
2021/05/01 03:42:06;;;;;;;58.93;41.07;;;7.30;99.90;;;;;;5071335;28;20178;-74
2021/05/01 03:44:32;;;;;;;57.23;40.70;;;7.30;99.90;;;;;;5053197;28;20538;-75
2021/05/01 03:46:57;;;;;;;63.07;40.60;;;7.30;99.90;;;;;;5071143;28;20170;-75
2021/05/01 03:49:23;;;;;;;59.87;42.77;;;7.30;99.90;;;;;;5071364;28;20162;-75
2021/05/01 03:51:49;;;;;;;56.33;40.60;;;7.30;99.90;;;;;;5071351;28;20166;-75
2021/05/01 03:54:15;;;;;;;63.23;41.10;;;7.30;99.90;;;;;;5071595;28;20193;-75
2021/05/01 03:56:40;;;;;;;64.33;42.10;;;7.20;99.90;;;;;;5071398;28;20413;-74
2021/05/01 03:59:06;;;;;;;57.57;39.73;;;7.20;99.90;;;;;;5053503;28;20537;-75
2021/05/01 04:01:31;;;;;;;56.23;43.70;;;7.30;99.90;;;;;;5071382;28;20236;-75
2021/05/01 04:03:57;;;;;;;53.30;38.60;;;7.30;99.90;;;;;;5071519;28;20756;-75
2021/05/01 04:06:23;;;;;;;55.87;40.00;;;7.30;99.90;;;;;;5071422;28;20170;-74
2021/05/01 04:08:48;;;;;;;59.63;43.43;;;7.30;99.90;;;;;;5071517;28;20474;-75
2021/05/01 04:11:14;;;;;;;51.23;37.17;;;7.20;99.90;;;;;;5070896;28;20170;-75
2021/05/01 04:13:46;;;;;;;59.03;40.90;;;7.20;99.90;;;;;;5071173;28;20193;-75
2021/05/01 04:16:16;;;;;;;56.80;42.27;;;7.20;99.90;;;;;;5053362;28;20174;-75
2021/05/01 04:18:42;;;;;;;58.23;42.87;;;7.30;99.90;;;;;;5071200;28;20427;-76
2021/05/01 04:21:08;;;;;;;57.07;40.17;;;7.30;99.90;;;;;;5071005;28;20420;-75
2021/05/01 04:23:34;;;;;;;56.97;42.10;;;7.30;99.90;;;;;;5071028;28;20947;-75
2021/05/01 04:26:00;;;;;;;60.43;41.27;;;7.30;99.90;;;;;;5071166;28;20209;-75
2021/05/01 04:28:26;;;;;;;57.70;40.87;;;7.40;99.90;;;;;;5071001;28;20490;-75
2021/05/01 04:30:52;;;;;;;54.20;40.20;;;7.40;99.90;;;;;;5053096;28;20503;-75
2021/05/01 04:33:18;;;;;;;58.93;40.07;;;7.50;99.90;;;;;;5071135;28;20523;-75
2021/05/01 04:35:43;;;;;;;57.23;40.10;;;7.50;99.90;;;;;;5071493;28;20182;-77
2021/05/01 04:38:09;;;;;;;53.70;39.07;;;7.40;99.90;;;;;;5053910;28;20253;-77
2021/05/01 04:40:34;;;;;;;50.90;38.67;;;7.50;99.90;;;;;;5072952;28;20181;-77
2021/05/01 04:43:02;;;;;;;57.87;38.80;;;7.50;99.90;;;;;;5058997;28;20303;-76
2021/05/01 04:45:28;;;;;;;55.73;38.50;;;7.50;99.90;;;;;;5077325;28;20201;-77
2021/05/01 04:47:54;;;;;;;59.13;40.80;;;7.50;99.90;;;;;;5076578;28;20419;-77
2021/05/01 04:50:20;;;;;;;77.83;47.87;;;7.50;99.90;;;;;;5077031;28;20778;-77
2021/05/01 04:52:46;;;;;;;65.87;43.87;;;7.50;99.90;;;;;;5076145;28;20209;-77
2021/05/01 04:55:14;;;;;;;69.80;46.17;;;7.60;99.90;;;;;;5074346;28;20999;-76
2021/05/01 04:57:48;;;;;;;75.40;48.27;;;7.60;99.90;;;;;;5070822;28;20181;-76
2021/05/01 05:00:15;;;;;;;77.23;47.03;;;7.70;99.90;;;;;;5074220;28;20961;-76
2021/05/01 05:02:41;;;;;;;70.60;45.47;;;7.80;99.90;;;;;;5074035;28;20428;-75
2021/05/01 05:05:08;;;;;;;66.53;44.27;;;7.80;99.90;;;;;;5073821;28;20460;-75
2021/05/01 05:07:34;;;;;;;74.10;46.70;;;7.90;99.90;;;;;;5056813;28;20219;-76
2021/05/01 05:09:59;;;;;;;71.37;46.00;;;8.00;99.90;;;;;;5075137;28;20508;-76
2021/05/01 05:12:25;;;;;;;64.73;42.90;;;8.10;99.90;;;;;;5075629;28;20456;-76
2021/05/01 05:14:51;;;;;;;74.93;42.77;;;8.10;99.90;;;;;;5076054;28;20190;-76
2021/05/01 05:17:17;;;;;;;74.67;45.60;;;8.20;99.90;;;;;;5076361;28;20209;-77
2021/05/01 05:19:43;;;;;;;65.70;44.97;;;8.20;99.90;;;;;;5075883;28;20250;-77
2021/05/01 05:22:08;;;;;;;63.90;45.13;;;8.30;99.90;;;;;;5057947;28;20826;-77
2021/05/01 05:24:36;;;;;;;71.03;42.73;;;8.40;99.90;;;;;;5075127;28;20198;-77
2021/05/01 05:27:03;;;;;;;63.27;42.43;;;8.50;99.90;;;;;;5057513;28;20223;-77
2021/05/01 05:29:28;;;;;;;62.33;41.90;;;8.50;99.90;;;;;;5075264;28;20412;-77
2021/05/01 05:31:54;;;;;;;63.43;43.93;;;8.70;99.90;;;;;;5075549;28;20469;-77
2021/05/01 05:34:19;;;;;;;55.60;41.53;;;8.90;99.90;;;;;;5075296;28;20201;-76
2021/05/01 05:36:45;;;;;;;55.27;39.10;;;9.20;99.90;;;;;;5075353;28;20185;-77
2021/05/01 05:39:11;;;;;;;53.17;39.20;;;9.30;99.90;;;;;;5074726;28;20181;-77
2021/05/01 05:41:36;;;;;;;54.07;40.07;;;9.60;99.90;;;;;;5074783;28;20185;-77
2021/05/01 05:44:04;;;;;;;48.50;34.43;;;9.80;99.90;;;;;;5075052;28;20679;-77
2021/05/01 05:46:29;;;;;;;53.30;36.03;;;10.10;99.90;;;;;;5074926;28;20171;-77
2021/05/01 05:48:55;;;;;;;47.43;35.67;;;10.40;99.90;;;;;;5060993;28;20800;-77
2021/05/01 05:51:21;;;;;;;43.20;34.20;;;10.70;99.90;;;;;;5074492;28;20231;-77
2021/05/01 05:53:47;;;;;;;42.23;33.03;;;11.10;99.90;;;;;;5055562;28;20197;-77
2021/05/01 05:56:13;;;;;;;51.33;34.83;;;11.10;99.90;;;;;;5057103;28;20504;-77
2021/05/01 05:58:40;;;;;;;39.33;32.00;;;11.40;99.90;;;;;;5075021;28;20940;-77
2021/05/01 06:01:05;;;;;;;41.80;31.17;;;11.50;99.90;;;;;;5075126;28;20166;-77
2021/05/01 06:03:31;;;;;;;36.60;30.90;;;11.70;99.90;;;;;;5056962;28;20442;-77
2021/05/01 06:06:04;;;;;;;41.37;33.10;;;12.10;99.90;;;;;;5057197;28;20256;-77
2021/05/01 06:08:31;;;;;;;39.67;30.30;;;12.30;99.90;;;;;;5075151;28;20420;-77
2021/05/01 06:10:58;;;;;;;41.87;31.47;;;12.10;99.90;;;;;;5074574;28;20424;-77
2021/05/01 06:13:26;;;;;;;47.17;35.07;;;12.20;99.90;;;;;;5074311;28;20786;-77
2021/05/01 06:15:55;;;;;;;42.23;30.93;;;12.60;99.90;;;;;;5056500;28;20431;-77
2021/05/01 06:18:23;;;;;;;44.00;33.60;;;12.80;99.90;;;;;;5057035;28;20421;-77
2021/05/01 06:20:49;;;;;;;36.80;31.57;;;13.30;99.90;;;;;;5056116;28;20427;-77
2021/05/01 06:23:18;;;;;;;39.70;32.03;;;14.00;99.90;;;;;;5056988;28;20471;-77
2021/05/01 06:25:45;;;;;;;40.83;35.00;;;14.70;99.90;;;;;;5074824;28;20470;-77
2021/05/01 06:28:12;;;;;;;42.70;33.30;;;14.90;99.90;;;;;;5074812;28;20419;-77
2021/05/01 06:30:40;;;;;;;41.07;32.47;;;15.10;99.90;;;;;;5073848;28;20412;-77
2021/05/01 06:33:09;;;;;;;76.10;61.77;;;15.00;99.90;;;;;;5074453;28;20439;-77
2021/05/01 06:35:36;;;;;;;36.97;31.53;;;14.20;99.90;;;;;;5074527;28;20464;-77
2021/05/01 06:38:02;;;;;;;41.00;30.57;;;14.20;99.90;;;;;;5074577;28;20412;-77
2021/05/01 06:40:32;;;;;;;33.20;29.63;;;14.50;99.90;;;;;;5073871;28;20429;-77
2021/05/01 06:43:07;;;;;;;35.43;28.43;;;14.70;99.90;;;;;;5073981;28;20190;-77
2021/05/01 06:45:35;;;;;;;33.33;28.57;;;14.40;99.90;;;;;;5055756;28;20484;-77
2021/05/01 06:48:03;;;;;;;34.60;26.93;;;14.00;99.90;;;;;;5073933;28;20408;-77
2021/05/01 06:50:29;;;;;;;29.93;26.47;;;14.40;99.90;;;;;;5073527;28;20417;-78
2021/05/01 06:52:57;;;;;;;27.67;23.60;;;13.80;99.90;;;;;;5074279;28;20527;-77
2021/05/01 06:55:25;;;;;;;29.63;24.30;;;13.70;99.90;;;;;;5072226;28;20417;-77
2021/05/01 06:57:52;;;;;;;29.03;24.30;;;14.00;99.90;;;;;;5074384;28;20420;-77
2021/05/01 07:00:22;;;;;;;27.57;24.10;;;14.80;99.90;;;;;;5074591;28;20491;-75
2021/05/01 07:02:50;;;;;;;32.50;25.37;;;15.40;99.90;;;;;;5048999;28;20921;-76
2021/05/01 07:05:21;;;;;;;33.87;27.00;;;15.50;99.90;;;;;;5072218;28;20448;-77
2021/05/01 07:07:47;;;;;;;40.80;29.83;;;15.50;99.90;;;;;;5056346;28;20416;-78
2021/05/01 07:10:14;;;;;;;29.83;26.00;;;15.40;99.90;;;;;;5073254;28;20448;-78
2021/05/01 07:12:44;;;;;;;27.00;24.17;;;14.80;99.90;;;;;;5055937;28;20412;-77
2021/05/01 07:15:12;;;;;;;28.37;21.90;;;14.80;99.90;;;;;;5055950;28;20944;-77
2021/05/01 07:17:39;;;;;;;28.30;23.53;;;14.80;99.90;;;;;;5073325;28;20432;-78
2021/05/01 07:20:07;;;;;;;21.97;19.60;;;15.00;99.90;;;;;;5073925;28;20412;-77
2021/05/01 07:22:33;;;;;;;26.40;22.87;;;15.40;99.90;;;;;;5073823;28;20456;-77
2021/05/01 07:25:01;;;;;;;26.70;24.00;;;15.40;99.90;;;;;;5073828;28;20810;-77
2021/05/01 07:27:41;;;;;;;35.00;24.40;;;15.90;99.90;;;;;;5073218;28;20462;-76
2021/05/01 07:30:08;;;;;;;27.13;23.80;;;16.50;99.90;;;;;;5051803;28;20482;-76
2021/05/01 07:32:36;;;;;;;30.77;24.00;;;16.80;99.90;;;;;;5073908;28;20412;-77
2021/05/01 07:35:07;;;;;;;21.83;19.17;;;17.10;99.90;;;;;;5074100;28;20436;-77
2021/05/01 07:37:36;;;;;;;25.03;21.07;;;17.40;99.90;;;;;;5074097;28;20447;-77
2021/05/01 07:40:06;;;;;;;23.53;20.00;;;17.40;99.90;;;;;;5073218;28;20928;-77
2021/05/01 07:42:38;;;;;;;21.87;19.57;;;17.90;99.90;;;;;;5055185;28;20469;-77
2021/05/01 07:45:04;;;;;;;22.90;19.67;;;17.80;99.90;;;;;;5073633;28;20812;-77
2021/05/01 07:47:32;;;;;;;23.53;19.40;;;17.60;99.90;;;;;;5055418;28;20933;-77
2021/05/01 07:49:59;;;;;;;24.50;17.77;;;17.70;99.90;;;;;;5072415;28;20766;-77
2021/05/01 07:52:30;;;;;;;24.23;19.40;;;18.20;99.90;;;;;;5055499;28;20415;-76
2021/05/01 07:54:56;;;;;;;21.27;19.17;;;18.30;99.10;;;;;;5055327;28;20511;-77
2021/05/01 07:57:21;;;;;;;21.73;18.97;;;18.50;96.80;;;;;;5073423;28;20412;-77
2021/05/01 07:59:47;;;;;;;24.27;20.50;;;18.80;95.70;;;;;;5071728;28;20445;-77
2021/05/01 08:02:12;;;;;;;24.37;21.77;;;18.80;96.20;;;;;;5073493;28;20554;-77
2021/05/01 08:04:38;;;;;;;23.50;21.13;;;19.00;92.20;;;;;;5070612;28;20263;-77
2021/05/01 08:07:03;;;;;;;26.23;22.60;;;19.50;92.80;;;;;;5058786;28;20175;-77
2021/05/01 08:09:29;;;;;;;26.73;23.00;;;19.50;92.20;;;;;;5051976;28;20220;-77
2021/05/01 08:11:55;;;;;;;23.60;21.20;;;19.00;91.60;;;;;;5061818;28;20300;-77
2021/05/01 08:14:20;;;;;;;25.63;20.43;;;19.10;90.60;;;;;;5061747;28;20740;-78
2021/05/01 08:16:46;;;;;;;25.53;22.70;;;19.30;87.30;;;;;;5075812;28;20232;-77
2021/05/01 08:19:11;;;;;;;26.40;23.80;;;18.70;88.20;;;;;;5076819;28;20180;-74
2021/05/01 08:21:37;;;;;;;30.33;25.03;;;18.60;91.20;;;;;;5074445;28;20523;-77
2021/05/01 08:24:04;;;;;;;27.97;25.17;;;18.20;88.20;;;;;;5077691;28;20630;-77
2021/05/01 08:26:30;;;;;;;29.50;25.80;;;18.20;90.00;;;;;;5077503;28;20237;-78
2021/05/01 08:28:55;;;;;;;32.07;26.20;;;17.80;89.50;;;;;;5059552;28;20424;-75
2021/05/01 08:31:21;;;;;;;31.23;25.30;;;17.60;93.00;;;;;;5058860;28;20416;-78
2021/05/01 08:33:47;;;;;;;29.93;24.37;;;17.60;93.10;;;;;;5058779;28;20198;-77
2021/05/01 08:36:13;;;;;;;27.60;24.67;;;17.40;92.70;;;;;;5076993;28;20474;-78
2021/05/01 08:38:39;;;;;;;32.30;24.17;;;17.10;92.90;;;;;;5076778;28;20177;-78
2021/05/01 08:41:06;;;;;;;29.60;23.70;;;17.30;93.50;;;;;;5077533;28;20175;-78
2021/05/01 08:43:32;;;;;;;26.90;22.80;;;17.00;90.80;;;;;;5058236;28;20948;-78
2021/05/01 08:45:59;;;;;;;29.13;23.10;;;16.90;91.70;;;;;;5076567;28;20456;-78
2021/05/01 08:48:26;;;;;;;26.47;21.80;;;17.20;93.70;;;;;;5076707;28;20408;-77
2021/05/01 08:51:00;;;;;;;26.03;22.83;;;17.60;92.10;;;;;;5058773;28;20964;-77
2021/05/01 08:53:26;;;;;;;25.13;21.00;;;17.90;90.70;;;;;;5075168;28;20443;-77
2021/05/01 08:55:51;;;;;;;24.20;21.90;;;18.40;82.90;;;;;;5043518;28;20416;-77
2021/05/01 08:58:17;;;;;;;25.40;22.67;;;18.10;78.50;;;;;;5058496;28;20438;-78
2021/05/01 09:00:44;;;;;;;26.37;23.57;;;18.50;79.20;;;;;;5076522;28;20181;-76
2021/05/01 09:03:12;;;;;;;27.60;24.60;;;17.80;81.20;;;;;;5057519;28;20201;-77
2021/05/01 09:05:38;;;;;;;25.70;22.07;;;17.90;86.60;;;;;;5080121;28;20456;-78
2021/05/01 09:08:07;;;;;;;26.30;22.50;;;17.70;84.60;;;;;;5077878;28;20438;-78
2021/05/01 09:10:45;;;;;;;25.47;22.60;;;17.10;82.00;;;;;;5079511;28;20426;-73
2021/05/01 09:13:20;;;;;;;27.30;22.40;;;17.10;87.10;;;;;;5076842;28;20442;-78
2021/05/01 09:16:05;;;;;;;24.57;21.90;;;17.30;89.80;;;;;;5066415;28;20423;-77
2021/05/01 09:18:50;;;;;;;30.20;22.20;;;17.70;89.80;;;;;;5062227;28;20480;-77
2021/05/01 09:21:24;;;;;;;28.27;22.77;;;18.20;87.40;;;;;;5058850;28;21837;-77
2021/05/01 09:23:51;;;;;;;25.03;22.37;;;18.50;81.50;;;;;;5079322;28;20452;-77
2021/05/01 09:26:22;;;;;;;24.77;21.67;;;18.40;80.20;;;;;;5075354;28;20423;-77
2021/05/01 09:28:50;;;;;;;23.53;21.27;;;18.80;79.70;;;;;;5074570;28;20413;-76
2021/05/01 09:31:18;;;;;;;24.60;17.73;;;19.30;77.70;;;;;;5057068;28;20420;-77
2021/05/01 09:33:48;;;;;;;24.03;21.63;;;19.60;71.40;;;;;;5074970;28;20443;-76
2021/05/01 09:36:19;;;;;;;32.53;22.23;;;19.80;70.10;;;;;;5059122;28;20428;-77
2021/05/01 09:38:48;;;;;;;27.37;21.47;;;19.90;66.30;;;;;;5075573;28;20420;-77
2021/05/01 09:41:17;;;;;;;25.50;22.90;;;19.90;67.20;;;;;;5055255;28;20474;-76
2021/05/01 09:44:03;;;;;;;23.67;19.13;;;19.10;60.10;;;;;;5056459;28;20432;-77
2021/05/01 09:46:48;;;;;;;23.97;21.47;;;19.30;62.50;;;;;;5069254;28;20417;-77
2021/05/01 09:49:25;;;;;;;24.43;21.93;;;18.30;60.70;;;;;;5074274;28;20465;-77
2021/05/01 09:52:07;;;;;;;20.77;17.10;;;19.00;68.80;;;;;;5073944;28;20491;-77
2021/05/01 09:54:35;;;;;;;19.53;17.53;;;19.60;59.70;;;;;;5075025;28;20436;-76
2021/05/01 09:57:06;;;;;;;23.73;20.00;;;20.20;60.50;;;;;;5075031;28;20416;-77
2021/05/01 09:59:51;;;;;;;20.67;18.57;;;20.40;58.70;;;;;;5074299;28;20449;-77
2021/05/01 10:02:22;;;;;;;21.07;18.87;;;20.50;58.70;;;;;;5073002;28;20409;-77
2021/05/01 10:05:11;;;;;;;28.67;17.70;;;21.10;58.30;;;;;;5056327;28;21038;-77
2021/05/01 10:07:40;;;;;;;22.13;16.93;;;21.20;56.40;;;;;;5073222;28;20967;-77
2021/05/01 10:10:07;;;;;;;21.17;18.70;;;20.90;55.80;;;;;;5074424;28;20810;-77
2021/05/01 10:12:40;;;;;;;20.30;17.67;;;20.10;53.00;;;;;;5074681;28;20413;-77
2021/05/01 10:15:16;;;;;;;20.57;16.47;;;20.10;57.00;;;;;;5046319;28;20452;-76
2021/05/01 10:17:45;;;;;;;16.97;14.87;;;20.40;56.50;;;;;;5056070;28;20416;-77
2021/05/01 10:20:11;;;;;;;16.67;15.07;;;20.70;54.20;;;;;;5054501;28;20419;-77
2021/05/01 10:22:40;;;;;;;33.57;25.20;;;20.60;51.20;;;;;;5055478;28;21161;-77
2021/05/01 10:25:08;;;;;;;16.70;14.53;;;20.80;52.50;;;;;;5055975;28;21067;-77
2021/05/01 10:27:43;;;;;;;19.87;17.30;;;21.40;52.00;;;;;;5074107;28;20897;-76
2021/05/01 10:30:15;;;;;;;19.50;17.40;;;21.50;51.10;;;;;;5055189;28;20425;-77
2021/05/01 10:32:50;;;;;;;17.20;15.37;;;21.60;52.20;;;;;;5073530;28;20470;-77
2021/05/01 10:35:16;;;;;;;25.60;15.50;;;20.70;48.80;;;;;;5055314;28;20457;-77
2021/05/01 10:37:48;;;;;;;16.73;15.23;;;21.20;50.80;;;;;;5055533;28;20428;-77
2021/05/01 10:40:14;;;;;;;18.83;14.10;;;21.60;51.60;;;;;;5072799;28;20452;-77
2021/05/01 10:42:40;;;;;;;17.83;14.00;;;21.90;51.30;;;;;;5073729;28;20436;-76
2021/05/01 10:45:06;;;;;;;17.43;15.63;;;22.00;51.40;;;;;;5054373;28;20464;-77
2021/05/01 10:47:32;;;;;;;15.90;14.40;;;21.90;51.20;;;;;;5073764;28;20208;-77
2021/05/01 10:49:58;;;;;;;16.73;14.90;;;20.60;47.60;;;;;;5073628;28;20412;-77
2021/05/01 10:52:24;;;;;;;15.97;14.27;;;21.30;50.80;;;;;;5074532;28;20189;-77
2021/05/01 10:55:02;;;;;;;15.83;14.00;;;22.10;48.30;;;;;;5074221;28;20793;-77
2021/05/01 10:57:29;;;;;;;13.70;12.50;;;22.70;47.80;;;;;;5056174;28;20419;-77
2021/05/01 10:59:59;;;;;;;14.10;12.70;;;22.80;45.60;;;;;;5073053;28;20408;-78
2021/05/01 11:02:33;;;;;;;11.63;10.53;;;22.00;44.40;;;;;;5057373;28;20440;-78
2021/05/01 11:05:00;;;;;;;13.70;12.20;;;22.60;47.20;;;;;;5074163;28;20443;-77
2021/05/01 11:07:53;;;;;;;12.83;11.73;;;22.50;46.90;;;;;;5057360;28;20413;-77
2021/05/01 11:10:19;;;;;;;13.30;12.00;;;22.60;46.30;;;;;;5055577;28;20474;-77
2021/05/01 11:12:51;;;;;;;12.47;11.33;;;23.10;46.40;;;;;;5055906;28;20444;-77
2021/05/01 11:15:20;;;;;;;11.07;9.83;;;22.60;43.80;;;;;;5054102;28;20485;-76
2021/05/01 11:18:05;;;;;;;15.13;13.57;;;21.90;43.90;;;;;;5074158;28;20423;-76
2021/05/01 11:20:34;;;;;;;18.83;17.10;;;22.40;47.20;;;;;;5073117;28;20420;-77
2021/05/01 11:23:00;;;;;;;10.53;9.63;;;22.80;46.90;;;;;;5073305;28;20493;-78
2021/05/01 11:25:28;;;;;;;11.30;10.23;;;23.00;45.50;;;;;;5071628;28;20988;-77
2021/05/01 11:27:55;;;;;;;11.00;10.07;;;23.10;45.80;;;;;;5071341;28;20170;-77
2021/05/01 11:30:26;;;;;;;10.50;9.40;;;23.00;45.10;;;;;;5070771;28;20806;-78
2021/05/01 11:32:53;;;;;;;9.57;8.77;;;22.80;44.70;;;;;;5071135;28;20423;-78
2021/05/01 11:35:21;;;;;;;11.50;9.97;;;23.00;45.90;;;;;;5071384;28;20526;-78
2021/05/01 11:37:49;;;;;;;8.30;7.50;;;23.00;44.60;;;;;;5053486;28;20459;-78
2021/05/01 11:40:17;;;;;;;10.10;7.17;;;22.80;44.10;;;;;;5051336;28;20417;-77
2021/05/01 11:42:44;;;;;;;8.20;7.47;;;22.40;43.20;;;;;;5071446;28;20473;-77
2021/05/01 11:45:14;;;;;;;12.97;11.70;;;21.90;43.70;;;;;;5071037;28;20545;-77
2021/05/01 11:47:43;;;;;;;7.97;7.07;;;21.70;44.00;;;;;;5071478;28;20412;-77
2021/05/01 11:50:10;;;;;;;8.50;6.50;;;22.00;43.40;;;;;;5072372;28;20444;-77
2021/05/01 11:52:51;;;;;;;7.30;6.60;;;22.20;43.00;;;;;;5075392;28;20409;-77
2021/05/01 11:55:29;;;;;;;7.13;6.43;;;22.40;44.10;;;;;;5059795;28;20412;-77
2021/05/01 11:58:00;;;;;;;14.90;7.00;;;22.80;44.60;;;;;;5075507;28;20416;-76
2021/05/01 12:00:37;;;;;;;5.90;5.40;;;23.30;43.90;;;;;;5074635;28;20412;-78
2021/05/01 12:03:06;;;;;;;7.20;6.13;;;23.20;42.50;;;;;;5074640;28;20447;-78
2021/05/01 12:05:39;;;;;;;7.77;6.00;;;22.80;41.70;;;;;;5075332;28;20460;-78
2021/05/01 12:08:21;;;;;;;6.60;6.00;;;22.60;43.50;;;;;;5075026;28;20917;-78
2021/05/01 12:10:53;;;;;;;8.70;7.10;;;22.70;42.80;;;;;;5059758;28;20420;-76
2021/05/01 12:13:34;;;;;;;5.90;5.40;;;22.40;43.10;;;;;;5060465;28;20447;-78
2021/05/01 12:16:02;;;;;;;7.20;6.60;;;22.60;43.00;;;;;;5078657;28;20442;-77
2021/05/01 12:18:46;;;;;;;8.60;7.50;;;22.80;42.80;;;;;;5060578;28;20466;-77
2021/05/01 12:21:19;;;;;;;19.73;16.20;;;22.60;43.20;;;;;;5059368;28;20413;-77
2021/05/01 12:23:49;;;;;;;9.70;8.80;;;22.60;43.00;;;;;;5078124;28;20941;-78
2021/05/01 12:26:45;;;;;;;12.80;11.67;;;22.50;42.20;;;;;;5060145;28;20540;-77
2021/05/01 12:29:23;;;;;;;108.33;97.03;;;22.10;42.30;;;;;;5044297;28;20835;-77
2021/05/01 12:31:58;;;;;;;72.57;64.40;;;21.30;39.50;;;;;;5059371;28;20561;-76
2021/05/01 12:34:53;;;;;;;24.90;22.17;;;21.90;42.30;;;;;;5076553;28;20456;-77
2021/05/01 12:37:20;;;;;;;20.30;18.33;;;21.50;40.60;;;;;;5062864;28;20445;-78